• Join FlightAware (Why Join?)
  • Login
  • US Flag 
02:11PM EST


 

Airport Tracker/Info


-or-


 

Live Flight TrackerFlight Track Log ✈ RPA3380 ✈ 22-Jan-2014 ✈ KPHL - KPWM

Flight Track Log - Related Links

Times and Time Zones

All times are in EST time to prevent confusion due to time zone crossing. See the RPA3380 flight status page for this flight to view local times or setup timezone preferences in your user account.

Time Position Orientation Groundspeed Altitude Reporting Facility
EST Latitude Longitude Course Direction KTS MPH feet Rate Location/Type
10:01PM 39.8667 -75.2667 57° Northeast 150 173 900  Level Philadelphia TRACON
10:02PM 39.8333 -75.3167 229° Southwest 211 243 2,500 2,280 Climbing Philadelphia TRACON
10:03PM 39.7833 -75.3500 207° Southwest 228 262 5,500 2,220 Climbing Philadelphia TRACON
10:04PM 40.1877 -74.8597 57° Northeast  Level Estimated
10:04PM 39.7667 -75.2667 105° East 286 329 7,000  Level Philadelphia TRACON
10:05PM 40.2663 -74.7639 51° Northeast  Level Estimated
10:06PM 40.3449 -74.6678 57° Northeast  Level Estimated
10:06PM 39.7828 -75.0200 85° East 296 341 12,000  Level New York Center
10:07PM 39.7844 -74.9122 89° East 320 368 12,000 780 Level New York Center
10:08PM 39.8342 -74.8042 59° Northeast 320 368 13,600 1,620 Climbing New York Center
10:09PM 39.9039 -74.7136 45° Northeast 335 386 15,300 1,800 Climbing New York Center
10:10PM 39.9778 -74.6228 43° Northeast 350 403 17,200 1,620 Climbing New York Center
10:11PM 40.0539 -74.5267 44° Northeast 365 420 18,600 1,620 Climbing New York Center
10:12PM 40.1339 -74.4281 43° Northeast 376 433 20,500 1,860 Climbing New York Center
10:13PM 40.2142 -74.3261 44° Northeast 387 445 22,400 1,800 Climbing New York Center
10:15PM 40.3514 -74.1589 43° Northeast 421 484 25,200 1,620 Climbing Boston Center
10:16PM 40.4378 -74.0494 44° Northeast 428 493 26,700 1,260 Climbing Boston Center
10:17PM 40.5294 -73.9406 42° Northeast 438 504 27,800 1,080 Climbing Boston Center
10:18PM 40.6203 -73.8236 44° Northeast 451 519 29,000 600 Climbing Boston Center
10:19PM 40.7103 -73.7078 44° Northeast 452 520 29,000  Level Boston Center
10:20PM 40.8017 -73.5903 44° Northeast 453 521 29,000  Level Boston Center
10:21PM 40.8939 -73.4719 44° Northeast 457 526 29,000  Level Boston Center
10:22PM 40.9853 -73.3533 44° Northeast 458 527 29,000  Level Boston Center
10:23PM 41.0858 -73.2242 44° Northeast 458 527 29,000  Level Boston Center
10:24PM 41.1731 -73.1011 47° Northeast 459 528 29,000  Level Boston Center
10:25PM 41.2419 -72.9553 58° Northeast 467 537 29,000  Level Boston Center
10:26PM 41.3044 -72.8181 59° Northeast 466 536 29,000  Level Boston Center
10:27PM 41.3725 -72.6733 58° Northeast 464 534 29,000  Level Boston Center
10:28PM 41.4397 -72.5278 58° Northeast 463 533 29,000  Level Boston Center
10:29PM 41.5078 -72.3822 58° Northeast 463 533 29,000  Level Boston Center
10:30PM 41.5758 -72.2331 59° Northeast 459 528 29,000  Level Boston Center
10:31PM 41.6414 -72.0903 58° Northeast 459 528 29,000  Level Boston Center
10:32PM 41.7067 -71.9447 59° Northeast 459 528 29,000  Level Boston Center
10:33PM 41.7736 -71.7986 58° Northeast 459 528 29,000  Level Boston Center
10:34PM 41.8386 -71.6519 59° Northeast 459 528 29,000  Level Boston Center
10:35PM 41.8956 -71.5000 63° Northeast 459 528 29,000  Level Boston Center
10:36PM 41.9489 -71.3461 65° Northeast 459 528 29,000  Level Boston Center
10:37PM 42.0378 -71.1831 54° Northeast 456 525 29,000  Level Boston Center
10:38PM 42.1419 -71.0894 34° Northeast 450 518 29,000  Level Boston Center
10:39PM 42.2494 -71.0008 31° Northeast 450 518 29,000  Level Boston Center
10:40PM 42.3567 -70.9103 32° Northeast 451 519 29,000 -900 Level Boston Center
10:41PM 42.4578 -70.8233 32° Northeast 451 519 27,300 -2,040 Descending Boston Center
10:42PM 42.5603 -70.7389 31° Northeast 436 502 25,000 -2,520 Descending Boston Center
10:43PM 42.6631 -70.6525 32° Northeast 415 478 22,300 -2,460 Descending Boston Center
10:44PM 42.7611 -70.5867 26° Northeast 396 456 20,100 -2,220 Descending Boston Center
10:45PM 42.8597 -70.5267 24° Northeast 388 447 17,800 -2,160 Descending Boston Center
10:46PM 42.9497 -70.4692 25° Northeast 364 419 15,800 -2,040 Descending Boston Center
10:47PM 43.0361 -70.4114 26° Northeast 351 404 13,800 -1,920 Descending Boston Center
10:48PM 43.1142 -70.3419 33° Northeast 337 388 11,900 -1,740 Descending Boston Center
10:49PM 43.1911 -70.2750 32° Northeast 315 362 10,300 -1,380 Descending Boston Center
10:50PM 43.2617 -70.2136 32° Northeast 282 325 9,200 -1,080 Descending Boston Center
10:51PM 43.3275 -70.1614 30° Northeast 277 319 8,200 -1,200 Descending Boston Center
10:52PM 43.4022 -70.1511 North 271 312 6,800 -1,380 Descending Boston Center
10:53PM 43.4714 -70.1425 North 252 290 5,400 -1,680 Descending Boston Center
10:54PM 43.5356 -70.1547 352° North 237 273 3,500 -1,560 Descending Boston Center
10:55PM 43.5919 -70.1783 343° North 212 244 2,300 -900 Descending Boston Center
10:56PM 43.6331 -70.2014 338° Northwest 165 190 1,700 -780 Descending Boston Center
10:57PM 43.6417 -70.2497 284° West 132 152 800 -840 Descending Boston Center
10:58PM 43.6447 -70.3003 275° West 125 144 100 -720 Descending Boston Center